Time;durP1;ratioP1;P1;durP2;ratioP2;P2;SDS_P1;SDS_P2;PMS_P1;PMS_P2;Temp;Humidity;BMP_temperature;BMP_pressure;BME280_temperature;BME280_humidity;BME280_pressure;Samples;Min_cycle;Max_cycle;Signal;HPM_P1;HPM_P2
2022/12/26 00:01:09;;;;;;;7.22;6.07;;;;;;;11.76;100.00;100144.41;5074167;28;20228;-74
2022/12/26 00:03:40;;;;;;;10.07;4.72;;;;;;;11.80;100.00;100146.00;5078756;28;20675;-74
2022/12/26 00:06:13;;;;;;;5.95;4.80;;;;;;;11.74;100.00;100139.13;5079366;28;20673;-74
2022/12/26 00:08:39;;;;;;;6.30;4.45;;;;;;;11.80;100.00;100136.09;5077459;28;20746;-76
2022/12/26 00:11:06;;;;;;;5.63;4.00;;;;;;;11.84;100.00;100150.28;5078213;28;20199;-75
2022/12/26 00:13:34;;;;;;;5.85;4.40;;;;;;;11.88;100.00;100135.69;5078072;28;20580;-76
2022/12/26 00:16:05;;;;;;;10.25;4.18;;;;;;;11.86;100.00;100127.66;5078108;28;20656;-76
2022/12/26 00:18:32;;;;;;;7.25;4.60;;;;;;;11.89;100.00;100127.53;5079462;28;20184;-76
2022/12/26 00:20:58;;;;;;;7.05;4.75;;;;;;;11.87;100.00;100123.13;5079846;28;20216;-76
2022/12/26 00:23:25;;;;;;;6.28;4.50;;;;;;;11.88;100.00;100123.06;5081849;28;20654;-75
2022/12/26 00:25:51;;;;;;;5.93;4.55;;;;;;;11.87;100.00;100132.13;5073597;28;20744;-75
2022/12/26 00:28:18;;;;;;;6.25;4.70;;;;;;;11.85;100.00;100125.91;5073359;28;20193;-75
2022/12/26 00:30:46;;;;;;;7.35;5.00;;;;;;;11.86;100.00;100108.75;5074159;28;20200;-74
2022/12/26 00:33:12;;;;;;;5.40;4.30;;;;;;;11.87;100.00;100110.56;5074428;28;20206;-74
2022/12/26 00:35:39;;;;;;;5.55;4.30;;;;;;;11.85;100.00;100112.44;5073572;28;20224;-75
2022/12/26 00:38:06;;;;;;;5.47;4.40;;;;;;;11.84;100.00;100124.16;5080516;28;20395;-75
2022/12/26 00:40:34;;;;;;;9.32;5.05;;;;;;;11.89;100.00;100110.44;5078815;28;20227;-77
2022/12/26 00:43:01;;;;;;;7.20;4.90;;;;;;;11.86;100.00;100110.59;5062413;28;20205;-74
2022/12/26 00:45:28;;;;;;;6.25;4.05;;;;;;;11.84;100.00;100118.75;5074759;28;20743;-76
2022/12/26 00:47:55;;;;;;;5.18;3.97;;;;;;;11.88;100.00;100112.28;5073383;28;20197;-76
2022/12/26 00:50:22;;;;;;;5.95;4.93;;;;;;;11.86;100.00;100116.00;5075350;28;20205;-75
2022/12/26 00:52:49;;;;;;;6.40;3.90;;;;;;;11.85;100.00;100122.34;5074319;28;20231;-77
2022/12/26 00:55:15;;;;;;;5.93;4.75;;;;;;;11.82;100.00;100136.84;5074967;28;20262;-75
2022/12/26 00:57:42;;;;;;;5.10;4.10;;;;;;;11.80;100.00;100132.50;5073212;28;20283;-75
2022/12/26 01:00:09;;;;;;;6.13;4.20;;;;;;;11.72;100.00;100119.44;5073808;28;20220;-77
2022/12/26 01:02:39;;;;;;;13.82;5.00;;;;;;;11.74;100.00;100125.63;5074141;28;20200;-76
2022/12/26 01:05:09;;;;;;;6.32;4.63;;;;;;;11.75;100.00;100118.41;5073084;28;20231;-76
2022/12/26 01:07:37;;;;;;;6.82;4.25;;;;;;;11.74;100.00;100120.25;5074455;28;20585;-75
2022/12/26 01:10:04;;;;;;;6.65;4.60;;;;;;;11.80;100.00;100128.00;5057080;28;20196;-75
2022/12/26 01:12:31;;;;;;;6.70;4.30;;;;;;;11.81;100.00;100124.34;5082228;28;20696;-76
2022/12/26 01:14:59;;;;;;;6.95;3.70;;;;;;;11.87;100.00;100133.91;5083183;28;20220;-75
2022/12/26 01:17:28;;;;;;;6.95;4.25;;;;;;;11.92;100.00;100128.28;5074819;28;20219;-75
2022/12/26 01:19:55;;;;;;;4.47;3.65;;;;;;;11.95;100.00;100139.78;5073280;28;20274;-75
2022/12/26 01:22:24;;;;;;;5.53;3.85;;;;;;;11.92;100.00;100139.09;5074546;28;20204;-76
2022/12/26 01:24:53;;;;;;;4.90;3.83;;;;;;;12.00;100.00;100134.16;5073095;28;20224;-76
2022/12/26 01:27:20;;;;;;;6.18;4.30;;;;;;;11.95;100.00;100134.41;5074091;28;20261;-76
2022/12/26 01:29:46;;;;;;;6.43;4.25;;;;;;;11.96;100.00;100144.25;5073331;28;20677;-76
2022/12/26 01:32:13;;;;;;;5.10;3.80;;;;;;;11.97;100.00;100145.13;5074162;28;20223;-76
2022/12/26 01:34:39;;;;;;;5.63;4.05;;;;;;;11.98;100.00;100134.22;5072577;28;20216;-77
2022/12/26 01:37:06;;;;;;;8.27;4.13;;;;;;;11.88;100.00;100125.78;5072740;28;20662;-75
2022/12/26 01:39:34;;;;;;;7.07;3.70;;;;;;;11.92;100.00;100136.38;5071860;28;20562;-76
2022/12/26 01:42:00;;;;;;;4.13;3.50;;;;;;;11.95;100.00;100147.91;5072343;28;20227;-77
2022/12/26 01:44:57;;;;;;;5.22;3.95;;;;;;;11.89;100.00;100154.50;5072605;28;20230;-76
2022/12/26 01:47:30;;;;;;;6.38;4.45;;;;;;;11.94;100.00;100166.84;5072364;28;20665;-75
2022/12/26 01:49:56;;;;;;;8.27;3.90;;;;;;;11.97;100.00;100161.31;5074199;28;20196;-76
2022/12/26 01:52:29;;;;;;;5.90;4.18;;;;;;;11.94;100.00;100150.66;5076710;28;20239;-76
2022/12/26 01:54:57;;;;;;;7.25;4.13;;;;;;;11.92;100.00;100160.66;5076731;28;20573;-75
2022/12/26 01:57:28;;;;;;;4.40;3.63;;;;;;;11.92;100.00;100157.97;5078200;28;20200;-77
2022/12/26 01:59:57;;;;;;;4.35;3.53;;;;;;;11.94;100.00;100153.38;5076215;28;20211;-76
2022/12/26 02:02:27;;;;;;;4.53;3.90;;;;;;;11.94;100.00;100166.84;5076204;28;20207;-76
2022/12/26 02:07:41;;;;;;;4.60;3.95;;;;;;;11.89;100.00;100170.72;5078345;28;20265;-75
2022/12/26 02:10:15;;;;;;;6.68;4.10;;;;;;;11.90;100.00;100163.47;5078034;28;20203;-76
2022/12/26 02:12:42;;;;;;;4.72;3.90;;;;;;;11.92;100.00;100175.06;5077550;28;20189;-74
2022/12/26 02:15:12;;;;;;;5.13;4.07;;;;;;;11.90;100.00;100171.56;5079237;28;20311;-75
2022/12/26 02:17:39;;;;;;;5.00;3.72;;;;;;;11.89;100.00;100169.81;5093619;28;20211;-74
2022/12/26 02:20:16;;;;;;;6.00;3.75;;;;;;;11.88;100.00;100181.56;5088037;28;20211;-75
2022/12/26 02:23:25;;;;;;;5.07;3.90;;;;;;;11.87;100.00;100199.59;5086240;28;20185;-75
2022/12/26 02:26:22;;;;;;;4.85;4.05;;;;;;;11.91;100.00;100202.13;5067369;28;20226;-76
2022/12/26 02:29:40;;;;;;;8.70;3.78;;;;;;;11.88;100.00;100190.53;5075464;28;20188;-76
2022/12/26 02:32:16;;;;;;;7.07;3.90;;;;;;;11.90;100.00;100203.94;5075777;28;20236;-75
2022/12/26 02:34:51;;;;;;;5.70;4.10;;;;;;;11.92;100.00;100191.25;5076606;28;20250;-77
2022/12/26 02:37:26;;;;;;;8.73;4.32;;;;;;;11.91;100.00;100184.09;5075652;28;20204;-75
2022/12/26 02:40:09;;;;;;;7.18;4.13;;;;;;;11.82;100.00;100185.44;5078918;28;20206;-75
2022/12/26 02:42:46;;;;;;;4.45;3.50;;;;;;;11.82;100.00;100190.81;5082011;28;20195;-75
2022/12/26 02:48:15;;;;;;;5.32;3.95;;;;;;;11.83;100.00;100192.59;5077419;28;20265;-77
2022/12/26 03:13:36;;;;;;;4.55;3.47;;;;;;;12.10;100.00;100165.94;5032208;28;20240;-77
2022/12/26 03:18:54;;;;;;;4.32;3.55;;;;;;;12.13;100.00;100175.69;5032067;28;20189;-76
2022/12/26 03:21:27;;;;;;;7.65;4.80;;;;;;;12.12;100.00;100178.47;5032694;28;20292;-76
2022/12/26 03:23:56;;;;;;;7.60;3.85;;;;;;;12.13;100.00;100173.00;5032284;28;20273;-77
2022/12/26 03:26:39;;;;;;;6.60;3.33;;;;;;;12.13;100.00;100154.09;5032346;28;20867;-75
2022/12/26 03:31:52;;;;;;;5.95;3.72;;;;;;;12.22;100.00;100175.19;5034051;28;20714;-76
2022/12/26 03:34:17;;;;;;;5.45;3.75;;;;;;;12.18;100.00;100167.34;5036904;28;20305;-76
2022/12/26 03:36:55;;;;;;;6.93;4.23;;;;;;;12.17;100.00;100169.19;5035856;28;20244;-75
2022/12/26 04:20:01;;;;;;;6.60;3.70;;;;;;;12.08;100.00;100154.34;4840456;29;20204;-75
2022/12/26 04:45:09;;;;;;;6.50;4.10;;;;;;;12.04;100.00;100205.91;4881413;29;20225;-75
2022/12/26 04:50:10;;;;;;;4.97;3.55;;;;;;;12.00;100.00;100202.47;4904426;29;20204;-75
2022/12/26 04:50:22;;;;;;;5.30;3.40;;;;;;;11.99;100.00;100192.66;4982145;28;20202;-74
2022/12/26 04:52:57;;;;;;;6.60;3.83;;;;;;;12.00;100.00;100182.72;5016918;28;20202;-76
2022/12/26 04:55:24;;;;;;;4.82;3.10;;;;;;;12.00;100.00;100188.13;5015186;28;20620;-76
2022/12/26 04:57:51;;;;;;;5.05;3.55;;;;;;;11.99;100.00;100191.78;5012653;28;20195;-76
2022/12/26 05:00:22;;;;;;;3.42;2.92;;;;;;;12.01;100.00;100204.25;5012471;28;20211;-76
2022/12/26 05:11:11;;;;;;;5.68;3.10;;;;;;;12.05;100.00;100159.94;5019819;28;20683;-76
2022/12/26 05:13:37;;;;;;;7.00;3.50;;;;;;;12.06;100.00;100155.41;5017844;28;20762;-75
2022/12/26 05:29:48;;;;;;;5.18;3.15;;;;;;;12.23;100.00;100182.34;5015360;28;20222;-75
2022/12/26 05:35:00;;;;;;;5.53;2.88;;;;;;;12.38;100.00;100177.03;5015281;28;20358;-76
2022/12/26 05:37:26;;;;;;;4.60;3.00;;;;;;;12.39;100.00;100185.06;5015255;28;20692;-75
2022/12/26 05:39:53;;;;;;;3.67;2.60;;;;;;;12.40;100.00;100183.22;5016004;28;20199;-76
2022/12/26 05:42:19;;;;;;;4.55;2.70;;;;;;;12.44;100.00;100184.78;5016755;28;20607;-73
2022/12/26 05:44:46;;;;;;;5.18;2.90;;;;;;;12.46;100.00;100189.16;5028547;28;20231;-75
2022/12/26 05:47:13;;;;;;;4.05;3.10;;;;;;;12.46;100.00;100191.00;5078769;28;20200;-77
2022/12/26 05:49:41;;;;;;;3.42;2.50;;;;;;;12.46;100.00;100191.00;5076289;28;20215;-74
2022/12/26 05:52:07;;;;;;;6.25;3.10;;;;;;;12.54;100.00;100180.59;5077753;28;20666;-75
2022/12/26 05:54:34;;;;;;;4.85;3.35;;;;;;;12.52;100.00;100186.06;5078371;28;20297;-75
2022/12/26 05:57:00;;;;;;;5.35;2.75;;;;;;;12.60;100.00;100192.91;5078804;28;20585;-74
2022/12/26 05:59:27;;;;;;;5.35;3.47;;;;;;;12.61;100.00;100195.50;5077067;28;20632;-74
2022/12/26 06:01:54;;;;;;;5.22;3.25;;;;;;;12.56;100.00;100189.50;5080069;28;20224;-76
2022/12/26 06:04:20;;;;;;;3.70;2.95;;;;;;;12.57;100.00;100188.50;5080985;28;20307;-77
2022/12/26 06:06:48;;;;;;;7.32;3.78;;;;;;;12.56;100.00;100173.28;5080624;28;20670;-76
2022/12/26 06:09:14;;;;;;;4.43;3.50;;;;;;;12.58;100.00;100184.00;5080382;28;20211;-75
2022/12/26 06:11:41;;;;;;;5.13;3.40;;;;;;;12.54;100.00;100182.44;5077889;28;20758;-75
2022/12/26 06:14:08;;;;;;;6.53;3.35;;;;;;;12.55;100.00;100198.56;5075810;28;20196;-74
2022/12/26 06:16:34;;;;;;;5.63;3.00;;;;;;;12.54;100.00;100204.91;5074733;28;20201;-75
2022/12/26 06:19:01;;;;;;;5.00;3.25;;;;;;;12.55;100.00;100209.38;5074220;28;20200;-74
2022/12/26 06:21:27;;;;;;;7.18;3.72;;;;;;;12.50;100.00;100206.94;5073367;28;20315;-75
2022/12/26 06:23:55;;;;;;;5.95;4.00;;;;;;;12.49;100.00;100205.16;5074270;28;20243;-75
2022/12/26 06:26:22;;;;;;;7.90;3.75;;;;;;;12.50;100.00;100201.53;5076243;28;20223;-77
2022/12/26 06:28:48;;;;;;;5.40;3.00;;;;;;;12.45;100.00;100203.59;5075356;28;20205;-74
2022/12/26 06:31:19;;;;;;;3.95;3.08;;;;;;;12.46;100.00;100199.09;5075636;28;20207;-74
2022/12/26 06:33:46;;;;;;;5.43;3.00;;;;;;;12.48;100.00;100203.44;5075153;28;20208;-75
2022/12/26 06:36:14;;;;;;;4.53;3.05;;;;;;;12.49;100.00;100204.31;5076441;28;20228;-76
2022/12/26 06:38:41;;;;;;;4.80;3.50;;;;;;;12.53;100.00;100219.38;5079132;28;20282;-76
2022/12/26 06:41:12;;;;;;;4.22;3.38;;;;;;;12.42;100.00;100211.88;5078788;28;20293;-76
2022/12/26 06:43:39;;;;;;;4.05;3.15;;;;;;;12.41;100.00;100203.84;5077364;28;20200;-76
2022/12/26 06:46:07;;;;;;;4.15;2.83;;;;;;;12.49;100.00;100215.09;5078098;28;20312;-75
2022/12/26 06:48:38;;;;;;;5.80;3.03;;;;;;;12.46;100.00;100207.19;5078206;28;20292;-76
2022/12/26 06:51:05;;;;;;;4.47;3.50;;;;;;;12.40;100.00;100212.94;5079674;28;20201;-75
2022/12/26 06:53:34;;;;;;;6.60;3.03;;;;;;;12.39;100.00;100206.66;5078918;28;20236;-74
2022/12/26 06:56:06;;;;;;;6.57;3.42;;;;;;;12.37;100.00;100208.56;5077917;28;20231;-75
2022/12/26 06:58:34;;;;;;;4.03;2.75;;;;;;;12.27;100.00;100204.63;5057026;28;20185;-74
2022/12/26 07:01:04;;;;;;;5.03;3.03;;;;;;;12.31;100.00;100201.66;5057887;28;20209;-75
2022/12/26 07:03:31;;;;;;;4.07;2.65;;;;;;;12.19;100.00;100205.06;5058246;28;20667;-74
2022/12/26 07:06:02;;;;;;;5.75;3.08;;;;;;;12.24;100.00;100213.78;5057467;28;20316;-75
2022/12/26 07:08:29;;;;;;;5.82;3.50;;;;;;;12.20;100.00;100208.63;5073082;28;20205;-74
2022/12/26 07:10:55;;;;;;;4.65;3.40;;;;;;;12.23;100.00;100200.34;5073038;28;20212;-74
2022/12/26 07:13:22;;;;;;;4.85;2.83;;;;;;;12.25;100.00;100212.81;5063803;28;20202;-75
2022/12/26 07:15:50;;;;;;;6.13;3.35;;;;;;;12.26;100.00;100198.34;5060243;28;20601;-75
2022/12/26 07:18:16;;;;;;;4.50;3.63;;;;;;;12.30;100.00;100196.34;5059710;28;20228;-75
2022/12/26 07:20:43;;;;;;;4.38;2.97;;;;;;;12.31;100.00;100214.31;5060136;28;20239;-74
2022/12/26 07:23:09;;;;;;;5.63;2.90;;;;;;;12.25;100.00;100223.59;5058493;28;20221;-75
2022/12/26 07:25:36;;;;;;;5.85;2.97;;;;;;;12.30;100.00;100220.66;5060449;28;20260;-75
2022/12/26 07:28:04;;;;;;;4.40;3.15;;;;;;;12.27;100.00;100237.03;5059642;28;20207;-75
2022/12/26 07:30:31;;;;;;;3.92;3.00;;;;;;;12.29;100.00;100230.59;5061093;28;20197;-75
2022/12/26 07:32:59;;;;;;;5.10;3.05;;;;;;;12.28;100.00;100231.56;5056315;28;20288;-74
2022/12/26 07:35:26;;;;;;;5.90;3.30;;;;;;;12.32;100.00;100237.63;5058378;28;20217;-74
2022/12/26 07:37:52;;;;;;;6.75;3.72;;;;;;;12.33;100.00;100244.81;5070221;28;20205;-75
2022/12/26 07:40:19;;;;;;;4.95;2.83;;;;;;;12.26;100.00;100252.38;5072717;28;20228;-74
2022/12/26 07:42:45;;;;;;;5.45;3.00;;;;;;;12.21;100.00;100254.44;5070820;28;20268;-74
2022/12/26 07:45:12;;;;;;;3.90;2.90;;;;;;;11.96;100.00;100267.50;5072687;28;20252;-76
2022/12/26 07:47:38;;;;;;;6.30;3.60;;;;;;;11.71;100.00;100287.66;5070882;28;20205;-75
2022/12/26 07:50:07;;;;;;;7.60;3.90;;;;;;;11.52;100.00;100287.72;5072844;28;20201;-73
2022/12/26 07:52:34;;;;;;;7.88;3.63;;;;;;;11.40;100.00;100294.63;5066804;28;20565;-75
2022/12/26 07:55:03;;;;;;;9.77;3.30;;;;;;;11.30;100.00;100287.06;5058108;28;20276;-75
2022/12/26 07:57:29;;;;;;;6.35;4.18;;;;;;;11.22;100.00;100299.13;5057808;28;20205;-76
2022/12/26 07:59:56;;;;;;;9.80;4.78;;;;;;;11.12;100.00;100303.19;5057723;28;20212;-76
2022/12/26 08:02:22;;;;;;;6.60;3.90;;;;;;;11.10;100.00;100301.53;5057801;28;20224;-77
2022/12/26 08:04:49;;;;;;;8.18;4.40;;;;;;;11.06;100.00;100296.31;5057339;28;20228;-74
2022/12/26 08:07:17;;;;;;;5.40;4.07;;;;;;;11.05;100.00;100289.16;5058051;28;20208;-76
2022/12/26 08:09:44;;;;;;;6.13;4.25;;;;;;;11.05;100.00;100286.47;5055957;28;20201;-75
2022/12/26 08:12:11;;;;;;;5.32;4.03;;;;;;;11.04;100.00;100290.13;5057440;28;20201;-75
2022/12/26 08:14:38;;;;;;;6.90;3.88;;;;;;;11.05;100.00;100274.81;5056395;28;20280;-75
2022/12/26 08:17:05;;;;;;;5.40;4.10;;;;;;;11.02;100.00;100281.22;5056783;28;20201;-75
2022/12/26 08:19:31;;;;;;;8.68;4.25;;;;;;;11.03;100.00;100287.47;5057338;28;20227;-76
2022/12/26 08:21:58;;;;;;;9.00;4.00;;;;;;;11.06;100.00;100269.34;5055406;28;20217;-75
2022/12/26 08:24:26;;;;;;;6.95;4.50;;;;;;;11.03;100.00;100263.22;5061230;28;20197;-74
2022/12/26 08:26:52;;;;;;;7.47;4.22;;;;;;;11.09;100.00;100267.47;5058019;28;20205;-76
2022/12/26 08:29:19;;;;;;;7.10;4.88;;;;;;;11.04;100.00;100268.56;5055364;28;20205;-73
2022/12/26 08:31:45;;;;;;;6.55;4.40;;;;;;;11.12;100.00;100287.03;5056834;28;20204;-77
2022/12/26 08:34:12;;;;;;;5.28;4.28;;;;;;;11.00;100.00;100277.72;5061783;28;20197;-75
2022/12/26 08:36:39;;;;;;;7.38;4.10;;;;;;;10.96;100.00;100259.97;5061781;28;20292;-75
2022/12/26 08:39:06;;;;;;;7.35;4.40;;;;;;;10.98;100.00;100263.47;5065994;28;20269;-75
2022/12/26 08:41:34;;;;;;;6.80;4.40;;;;;;;10.99;100.00;100275.09;5068236;28;20216;-75
2022/12/26 08:44:00;;;;;;;5.75;4.50;;;;;;;11.04;100.00;100294.63;5068743;28;20295;-74
2022/12/26 08:46:27;;;;;;;10.98;4.50;;;;;;;10.99;100.00;100302.94;5067670;28;20217;-74
2022/12/26 08:48:54;;;;;;;10.90;5.22;;;;;;;11.01;100.00;100303.75;5066057;28;20223;-76
2022/12/26 08:51:22;;;;;;;7.65;4.75;;;;;;;11.01;100.00;100319.91;5062675;28;20232;-75
2022/12/26 08:53:49;;;;;;;6.60;4.22;;;;;;;11.00;100.00;100312.75;5062005;28;20302;-75
2022/12/26 08:56:18;;;;;;;6.95;4.10;;;;;;;11.02;100.00;100310.00;5062534;28;20221;-74
2022/12/26 08:58:46;;;;;;;7.43;4.30;;;;;;;11.08;100.00;100317.81;5066045;28;20204;-74
2022/12/26 09:01:14;;;;;;;4.95;3.35;;;;;;;11.14;100.00;100338.19;5065860;28;20201;-73
2022/12/26 09:03:44;;;;;;;9.68;4.22;;;;;;;11.15;100.00;100330.03;5068052;28;20228;-77
2022/12/26 09:06:12;;;;;;;6.25;4.10;;;;;;;11.18;100.00;100345.16;5067830;28;20231;-74
2022/12/26 09:08:39;;;;;;;5.68;4.25;;;;;;;11.20;100.00;100357.63;5065709;28;20201;-75
2022/12/26 09:11:08;;;;;;;7.25;4.90;;;;;;;11.18;100.00;100350.56;5063314;28;20220;-76
2022/12/26 09:13:35;;;;;;;5.05;4.18;;;;;;;11.24;100.00;100364.63;5062232;28;20555;-76
2022/12/26 09:16:09;;;;;;;10.68;4.57;;;;;;;11.31;100.00;100373.28;5061886;28;20228;-74
2022/12/26 09:18:36;;;;;;;6.95;5.07;;;;;;;11.32;100.00;100360.66;5061721;28;20276;-73
2022/12/26 09:21:04;;;;;;;5.30;3.70;;;;;;;11.32;100.00;100366.91;5059258;28;20205;-75
2022/12/26 09:23:32;;;;;;;9.52;5.53;;;;;;;11.30;100.00;100367.94;5058712;28;20494;-74
2022/12/26 09:26:04;;;;;;;8.05;4.40;;;;;;;11.37;100.00;100375.66;5059290;28;20663;-74
2022/12/26 09:28:31;;;;;;;5.63;3.67;;;;;;;11.30;100.00;100376.03;5057411;28;20228;-74
2022/12/26 09:30:59;;;;;;;6.95;4.25;;;;;;;11.34;100.00;100389.28;5060017;28;20205;-76
2022/12/26 09:33:27;;;;;;;5.70;4.13;;;;;;;11.40;100.00;100398.94;5060487;28;20193;-76
2022/12/26 09:35:54;;;;;;;5.45;3.90;;;;;;;11.39;100.00;100398.03;5061135;28;20227;-73
2022/12/26 09:38:21;;;;;;;7.70;3.90;;;;;;;11.39;100.00;100389.06;5060335;28;20277;-74
2022/12/26 09:40:59;;;;;;;5.40;3.70;;;;;;;11.43;100.00;100388.84;5061984;28;20211;-74
2022/12/26 09:43:36;;;;;;;5.28;3.78;;;;;;;11.40;100.00;100393.53;5061554;28;20223;-73
2022/12/26 09:46:10;;;;;;;4.30;3.05;;;;;;;11.46;100.00;100383.31;5063603;28;20296;-72
2022/12/26 09:48:49;;;;;;;7.00;4.30;;;;;;;11.48;100.00;100372.44;5064576;28;20208;-74
2022/12/26 09:51:16;;;;;;;4.88;3.60;;;;;;;11.48;100.00;100364.34;5066582;28;20204;-73
2022/12/26 09:53:46;;;;;;;6.07;3.92;;;;;;;11.58;100.00;100373.75;5066646;28;20260;-74
2022/12/26 09:56:15;;;;;;;4.90;3.35;;;;;;;11.58;100.00;100378.28;5066778;28;20287;-74
2022/12/26 09:58:46;;;;;;;5.28;3.30;;;;;;;11.61;100.00;100388.88;5065304;28;20269;-74
2022/12/26 10:01:16;;;;;;;3.63;3.30;;;;;;;11.64;100.00;100395.00;5066119;28;20197;-74
2022/12/26 10:03:46;;;;;;;5.30;4.18;;;;;;;11.72;100.00;100383.84;5064213;28;20221;-74
2022/12/26 10:06:16;;;;;;;4.57;3.10;;;;;;;11.74;100.00;100392.72;5062339;28;20323;-74
2022/12/26 10:09:10;;;;;;;5.03;3.28;;;;;;;11.65;100.00;100391.34;5060632;28;20211;-76
2022/12/26 10:11:53;;;;;;;3.40;2.90;;;;;;;11.68;100.00;100398.41;5062885;28;20210;-72
2022/12/26 10:14:29;;;;;;;6.97;2.55;;;;;;;11.57;100.00;100385.47;5066509;28;20196;-74
2022/12/26 10:17:02;;;;;;;3.40;2.58;;;;;;;11.63;100.00;100387.00;5067242;28;20212;-73
2022/12/26 10:19:44;;;;;;;5.57;2.90;;;;;;;11.53;100.00;100364.13;5067179;28;20212;-74
2022/12/26 10:22:28;;;;;;;3.78;2.80;;;;;;;11.59;100.00;100366.50;5066846;28;20248;-75
2022/12/26 10:24:58;;;;;;;6.40;2.85;;;;;;;11.64;100.00;100359.06;5065876;28;20220;-75
2022/12/26 10:27:27;;;;;;;6.65;3.05;;;;;;;11.72;100.00;100362.25;5067052;28;20198;-74
2022/12/26 10:29:58;;;;;;;3.13;2.53;;;;;;;11.67;100.00;100359.78;5057815;28;20291;-74
2022/12/26 10:32:30;;;;;;;3.55;2.33;;;;;;;11.71;100.00;100371.28;5069969;28;20193;-75
2022/12/26 10:35:00;;;;;;;4.03;2.55;;;;;;;11.72;100.00;100382.97;5063765;28;20221;-75
2022/12/26 10:37:29;;;;;;;4.28;2.45;;;;;;;11.72;100.00;100400.03;5059029;28;20193;-75
2022/12/26 10:39:59;;;;;;;3.75;2.60;;;;;;;11.75;100.00;100390.91;5058506;28;20205;-75
2022/12/26 10:42:30;;;;;;;5.32;2.40;;;;;;;11.81;100.00;100393.28;5058777;28;20725;-74
2022/12/26 10:44:57;;;;;;;2.47;1.90;;;;;;;11.84;100.00;100379.63;5059809;28;20225;-74
2022/12/26 10:47:27;;;;;;;2.10;1.60;;;;;;;11.75;100.00;100375.56;5058254;28;20201;-74
2022/12/26 10:49:58;;;;;;;4.88;2.60;;;;;;;11.76;100.00;100385.44;5057193;28;20193;-74
2022/12/26 10:52:30;;;;;;;3.53;2.38;;;;;;;11.76;100.00;100396.22;5058087;28;20251;-73
2022/12/26 10:54:58;;;;;;;2.88;2.17;;;;;;;11.72;100.00;100405.41;5058890;28;20253;-75
2022/12/26 10:57:28;;;;;;;2.20;1.52;;;;;;;11.63;100.00;100397.78;5060144;28;20237;-75
2022/12/26 10:59:56;;;;;;;2.58;2.15;;;;;;;11.52;100.00;100398.31;5062971;28;20197;-74
2022/12/26 11:02:26;;;;;;;5.80;2.25;;;;;;;11.53;100.00;100418.06;5062867;28;20229;-75
2022/12/26 11:07:20;;;;;;;4.88;2.20;;;;;;;11.62;100.00;100409.50;5097713;22;20232;-77
2022/12/26 11:09:54;;;;;;;3.65;2.63;;;;;;;11.78;100.00;100418.59;5076261;28;20603;-77
2022/12/26 11:12:24;;;;;;;3.15;2.28;;;;;;;11.82;100.00;100427.41;5076950;28;20188;-76
2022/12/26 11:14:58;;;;;;;3.35;2.50;;;;;;;11.84;100.00;100420.09;5077202;28;20185;-76
2022/12/26 11:17:27;;;;;;;5.30;2.38;;;;;;;11.94;100.00;100412.44;5057047;28;20240;-76
2022/12/26 11:20:34;;;;;;;3.10;2.20;;;;;;;12.04;100.00;100419.13;5058711;28;20205;-75
2022/12/26 11:23:26;;;;;;;4.18;2.55;;;;;;;12.09;100.00;100414.38;5051771;28;20227;-76
2022/12/26 11:25:57;;;;;;;2.42;1.83;;;;;;;12.10;100.00;100414.28;5061996;28;20317;-75
2022/12/26 11:28:32;;;;;;;4.32;1.55;;;;;;;12.19;100.00;100421.06;5058294;28;20189;-75
2022/12/26 11:31:01;;;;;;;2.03;1.40;;;;;;;12.18;100.00;100421.13;5057275;28;20192;-77
2022/12/26 11:33:30;;;;;;;2.40;1.40;;;;;;;12.12;100.00;100427.72;5056650;28;20197;-76
2022/12/26 11:36:08;;;;;;;2.97;1.67;;;;;;;12.10;100.00;100416.13;5056260;28;20221;-77
2022/12/26 11:38:46;;;;;;;2.97;1.77;;;;;;;12.10;100.00;100418.84;5055855;28;20205;-77
2022/12/26 11:41:35;;;;;;;4.00;1.90;;;;;;;12.15;100.00;100421.28;5059013;28;20201;-77
2022/12/26 11:44:12;;;;;;;3.95;1.90;;;;;;;12.14;100.00;100424.94;5056343;28;20205;-76
2022/12/26 11:46:42;;;;;;;3.20;1.95;;;;;;;12.13;100.00;100426.75;5056676;28;20224;-74
2022/12/26 11:49:19;;;;;;;2.30;1.50;;;;;;;12.11;100.00;100407.06;5054502;28;20186;-76
2022/12/26 11:51:47;;;;;;;2.90;1.80;;;;;;;12.14;100.00;100411.44;5056303;28;20189;-76
2022/12/26 11:54:23;;;;;;;5.63;2.53;;;;;;;12.16;100.00;100407.69;5055687;28;20294;-76
2022/12/26 11:57:01;;;;;;;2.35;1.65;;;;;;;12.10;100.00;100408.03;5061368;28;20227;-75
2022/12/26 11:59:28;;;;;;;3.40;2.00;;;;;;;12.21;100.00;100416.44;5056719;28;20590;-75
2022/12/26 12:02:25;;;;;;;3.17;1.90;;;;;;;12.07;100.00;100408.16;5038740;28;20211;-76
2022/12/26 12:04:55;;;;;;;2.40;2.00;;;;;;;12.07;100.00;100405.47;5055958;28;20659;-76
2022/12/26 12:07:47;;;;;;;2.58;1.90;;;;;;;12.10;100.00;100403.50;5057093;28;20308;-76
2022/12/26 12:10:49;;;;;;;3.42;2.22;;;;;;;12.00;100.00;100401.34;5055993;28;20201;-76
2022/12/26 12:13:33;;;;;;;3.47;2.20;;;;;;;12.02;100.00;100408.41;5056166;28;20283;-75
2022/12/26 12:16:10;;;;;;;6.45;3.95;;;;;;;11.95;100.00;100400.72;5057129;28;20225;-75
2022/12/26 12:18:46;;;;;;;5.25;2.85;;;;;;;11.97;100.00;100396.13;5056418;28;20598;-76
2022/12/26 12:21:25;;;;;;;3.88;2.53;;;;;;;11.96;100.00;100391.66;5055722;28;20181;-76
2022/12/26 12:24:23;;;;;;;4.35;2.72;;;;;;;12.00;100.00;100401.34;5055572;28;20625;-76
2022/12/26 12:27:01;;;;;;;5.13;2.30;;;;;;;11.93;100.00;100391.81;5055327;28;20255;-76
2022/12/26 12:29:53;;;;;;;4.10;2.50;;;;;;;11.99;100.00;100392.38;5054133;28;20185;-76
2022/12/26 12:32:27;;;;;;;4.57;2.58;;;;;;;11.84;100.00;100385.91;5055660;28;20181;-77
2022/12/26 12:35:15;;;;;;;3.72;2.25;;;;;;;11.83;100.00;100378.78;5057852;28;20191;-75
2022/12/26 12:37:56;;;;;;;3.03;2.35;;;;;;;11.89;100.00;100383.88;5056334;28;20174;-77
2022/12/26 12:40:31;;;;;;;4.25;2.75;;;;;;;11.83;100.00;100380.59;5056522;28;20186;-75
2022/12/26 12:43:11;;;;;;;3.70;2.45;;;;;;;11.85;100.00;100376.00;5041925;28;20217;-75
2022/12/26 12:45:48;;;;;;;3.80;2.75;;;;;;;11.88;100.00;100373.16;5059221;28;20304;-75
2022/12/26 12:48:31;;;;;;;3.85;2.40;;;;;;;11.82;100.00;100373.44;5055762;28;20196;-77
2022/12/26 12:51:05;;;;;;;3.17;2.60;;;;;;;11.79;100.00;100370.91;5054622;28;20184;-74
2022/12/26 12:53:56;;;;;;;7.25;2.55;;;;;;;11.84;100.00;100376.94;5054324;28;20201;-75
2022/12/26 12:56:31;;;;;;;8.00;4.35;;;;;;;11.86;100.00;100373.19;5053772;28;20217;-76
2022/12/26 12:59:06;;;;;;;2.92;2.35;;;;;;;11.85;100.00;100379.56;5052718;28;20193;-75
2022/12/26 13:01:39;;;;;;;3.40;2.55;;;;;;;11.90;100.00;100371.25;5053698;28;20530;-76
2022/12/26 13:04:12;;;;;;;5.40;2.53;;;;;;;11.86;100.00;100362.41;5060999;28;20225;-75
2022/12/26 13:06:43;;;;;;;3.15;2.17;;;;;;;11.91;100.00;100355.94;5054116;28;20609;-77
2022/12/26 13:09:15;;;;;;;3.65;2.20;;;;;;;11.96;100.00;100357.47;5057589;28;20181;-76
2022/12/26 13:11:47;;;;;;;5.43;2.47;;;;;;;11.99;100.00;100354.59;5058605;28;20335;-76
2022/12/26 13:14:19;;;;;;;2.78;2.05;;;;;;;12.05;100.00;100342.59;5060660;28;20269;-76
2022/12/26 13:16:52;;;;;;;2.30;1.95;;;;;;;12.14;100.00;100354.75;5058001;28;20706;-76
2022/12/26 13:19:22;;;;;;;5.03;2.08;;;;;;;12.17;100.00;100349.19;5055120;28;20195;-77
2022/12/26 13:21:52;;;;;;;3.60;1.80;;;;;;;12.20;100.00;100340.91;5057641;28;20194;-76
2022/12/26 13:24:27;;;;;;;2.13;1.55;;;;;;;12.25;100.00;100345.09;5060231;28;20217;-75
2022/12/26 13:27:01;;;;;;;2.60;2.00;;;;;;;12.27;100.00;100332.41;5058958;28;20220;-76
2022/12/26 13:29:37;;;;;;;1.75;1.55;;;;;;;12.36;100.00;100343.69;5058597;28;20185;-77
2022/12/26 13:32:17;;;;;;;4.05;1.80;;;;;;;12.37;100.00;100340.91;5059410;28;20208;-76
2022/12/26 13:34:44;;;;;;;4.45;2.10;;;;;;;12.36;100.00;100335.56;5055724;28;20685;-77
2022/12/26 13:37:41;;;;;;;4.50;1.77;;;;;;;12.36;100.00;100335.56;5056219;28;20217;-76
2022/12/26 13:40:16;;;;;;;2.67;1.23;;;;;;;12.37;100.00;100330.09;5055326;28;20212;-76